createdAt,value
2022-10-16T00:01:23.758Z,2.42
2022-10-16T00:03:50.961Z,1.58
2022-10-16T00:08:45.127Z,2.65
2022-10-16T00:11:16.415Z,2.00
2022-10-16T00:13:44.570Z,2.53
2022-10-16T00:16:13.251Z,1.50
2022-10-16T00:18:40.592Z,1.65
2022-10-16T00:21:13.053Z,2.42
2022-10-16T00:23:39.981Z,1.58
2022-10-16T00:26:18.401Z,1.90
2022-10-16T00:28:49.255Z,2.03
2022-10-16T00:31:18.113Z,2.25
2022-10-16T00:33:44.583Z,1.60
2022-10-16T00:36:14.355Z,2.17
2022-10-16T00:38:41.004Z,2.10
2022-10-16T00:41:10.796Z,2.25
2022-10-16T00:44:08.288Z,2.53
2022-10-16T00:46:43.195Z,1.65
2022-10-16T00:49:12.278Z,2.72
2022-10-16T00:51:47.529Z,2.75
2022-10-16T00:54:17.915Z,1.90
2022-10-16T00:56:47.212Z,1.83
2022-10-16T00:59:21.353Z,2.45
2022-10-16T01:01:47.905Z,2.83
2022-10-16T01:04:14.701Z,1.85
2022-10-16T01:06:54.584Z,1.80
2022-10-16T01:10:04.720Z,2.03
2022-10-16T01:12:45.446Z,3.35
2022-10-16T01:15:32.860Z,2.15
2022-10-16T01:18:15.489Z,2.70
2022-10-16T01:21:02.201Z,2.17
2022-10-16T01:23:32.849Z,1.60
2022-10-16T01:26:24.204Z,2.17
2022-10-16T01:29:21.743Z,2.08
2022-10-16T01:31:54.825Z,1.60
2022-10-16T01:34:48.138Z,2.35
2022-10-16T01:37:19.658Z,1.75
2022-10-16T01:39:51.255Z,1.80
2022-10-16T01:42:25.002Z,1.88
2022-10-16T01:44:54.002Z,2.35
2022-10-16T01:47:25.859Z,1.83
2022-10-16T01:49:54.869Z,2.03
2022-10-16T01:52:27.207Z,2.17
2022-10-16T01:54:58.611Z,1.90
2022-10-16T01:57:27.721Z,1.85
2022-10-16T01:59:59.872Z,2.42
2022-10-16T02:02:29.649Z,1.33
2022-10-16T02:05:01.414Z,1.80
2022-10-16T02:07:28.037Z,1.40
2022-10-16T02:09:55.357Z,1.80
2022-10-16T02:14:54.554Z,1.42
2022-10-16T02:17:22.184Z,2.08
2022-10-16T02:19:51.882Z,1.60
2022-10-16T02:22:34.852Z,1.50
2022-10-16T02:25:08.310Z,1.98
2022-10-16T02:27:52.906Z,2.00
2022-10-16T02:30:43.484Z,2.05
2022-10-16T02:33:14.520Z,2.05
2022-10-16T02:35:42.550Z,1.63
2022-10-16T02:40:42.208Z,1.67
2022-10-16T02:43:10.022Z,1.67
2022-10-16T02:45:36.678Z,2.45
2022-10-16T02:48:03.506Z,2.67
2022-10-16T02:50:30.008Z,1.77
2022-10-16T02:52:56.596Z,1.98
2022-10-16T02:55:23.170Z,1.70
2022-10-16T02:57:49.657Z,2.53
2022-10-16T03:00:18.187Z,1.42
2022-10-16T03:02:45.060Z,1.23
2022-10-16T03:05:11.722Z,1.58
2022-10-16T03:07:38.320Z,1.98
2022-10-16T03:10:05.237Z,1.60
2022-10-16T03:12:31.734Z,1.67
2022-10-16T03:14:58.415Z,1.60
2022-10-16T03:17:26.195Z,1.67
2022-10-16T03:19:52.853Z,1.50
2022-10-16T03:22:19.304Z,2.70
2022-10-16T03:24:45.751Z,2.30
2022-10-16T03:27:12.232Z,1.17
2022-10-16T03:29:38.685Z,1.88
2022-10-16T03:32:05.161Z,1.70
2022-10-16T03:34:31.617Z,1.98
2022-10-16T03:36:58.093Z,1.40
2022-10-16T03:39:24.758Z,1.75
2022-10-16T03:41:51.245Z,1.60
2022-10-16T03:44:17.709Z,1.63
2022-10-16T03:46:44.212Z,2.05
2022-10-16T03:49:10.707Z,1.73
2022-10-16T03:51:37.281Z,1.77
2022-10-16T03:54:03.917Z,1.50
2022-10-16T03:56:30.409Z,1.60
2022-10-16T03:58:56.873Z,2.28
2022-10-16T04:01:23.399Z,2.22
2022-10-16T04:03:49.950Z,1.35
2022-10-16T04:06:16.421Z,1.80
2022-10-16T04:08:46.157Z,1.98
2022-10-16T04:11:12.796Z,1.73
2022-10-16T04:13:39.290Z,1.83
2022-10-16T04:16:05.965Z,1.40
2022-10-16T04:18:32.454Z,1.33
2022-10-16T04:21:04.041Z,1.27
2022-10-16T04:23:30.559Z,1.40
2022-10-16T04:25:57.037Z,1.70
2022-10-16T04:28:23.646Z,1.40
2022-10-16T04:30:50.140Z,2.05
2022-10-16T04:33:16.594Z,1.95
2022-10-16T04:35:43.116Z,2.35
2022-10-16T04:38:09.569Z,1.75
2022-10-16T04:40:38.538Z,1.55
2022-10-16T04:43:05.684Z,1.70
2022-10-16T04:45:32.500Z,1.63
2022-10-16T04:48:00.096Z,1.92
2022-10-16T04:50:27.133Z,1.40
2022-10-16T04:52:53.593Z,1.85
2022-10-16T04:55:20.103Z,1.50
2022-10-16T04:57:46.603Z,2.10
2022-10-16T05:00:13.676Z,1.90
2022-10-16T05:02:40.174Z,1.58
2022-10-16T05:05:06.957Z,2.10
2022-10-16T05:07:33.416Z,1.67
2022-10-16T05:09:59.873Z,1.45
2022-10-16T05:12:26.355Z,2.22
2022-10-16T05:14:52.856Z,2.30
2022-10-16T05:17:19.284Z,1.95
2022-10-16T05:19:45.726Z,1.83
2022-10-16T05:22:12.185Z,1.42
2022-10-16T05:24:38.653Z,1.20
2022-10-16T05:27:05.124Z,1.63
2022-10-16T05:29:31.766Z,1.73
2022-10-16T05:31:58.200Z,2.03
2022-10-16T05:34:24.661Z,1.73
2022-10-16T05:36:51.285Z,1.48
2022-10-16T05:39:17.835Z,1.67
2022-10-16T05:41:44.604Z,1.85
2022-10-16T05:44:11.225Z,1.80
2022-10-16T05:46:37.892Z,1.27
2022-10-16T05:49:04.929Z,1.63
2022-10-16T05:51:31.434Z,1.60
2022-10-16T05:53:57.929Z,1.52
2022-10-16T05:56:24.393Z,2.00
2022-10-16T05:58:50.846Z,1.70
2022-10-16T06:01:19.626Z,1.48
2022-10-16T06:03:46.184Z,1.90
2022-10-16T06:06:21.262Z,1.85
2022-10-16T06:08:48.893Z,1.30
2022-10-16T06:11:19.124Z,1.42
2022-10-16T06:13:46.945Z,1.80
2022-10-16T06:16:14.081Z,2.80
2022-10-16T06:18:40.596Z,2.15
2022-10-16T06:21:11.588Z,2.72
2022-10-16T06:23:38.158Z,2.38
2022-10-16T06:26:12.797Z,2.58
2022-10-16T06:28:40.226Z,2.38
2022-10-16T06:31:08.491Z,2.33
2022-10-16T06:33:35.437Z,2.80
2022-10-16T06:36:13.921Z,2.05
2022-10-16T06:38:40.418Z,2.20
2022-10-16T06:41:08.333Z,1.85
2022-10-16T06:43:37.844Z,2.42
2022-10-16T06:46:06.413Z,2.55
2022-10-16T06:48:32.864Z,2.95
2022-10-16T06:51:09.313Z,2.67
2022-10-16T06:53:39.782Z,2.42
2022-10-16T06:56:18.517Z,3.72
2022-10-16T06:58:45.858Z,2.40
2022-10-16T07:03:41.389Z,3.20
2022-10-16T07:06:10.919Z,2.83
2022-10-16T07:08:39.551Z,2.60
2022-10-16T07:11:08.954Z,2.80
2022-10-16T07:13:39.651Z,2.67
2022-10-16T07:16:10.361Z,2.63
2022-10-16T07:18:37.430Z,2.65
2022-10-16T07:21:06.001Z,2.55
2022-10-16T07:23:32.561Z,2.70
2022-10-16T07:25:59.033Z,2.88
2022-10-16T07:28:25.741Z,2.40
2022-10-16T07:30:52.346Z,3.00
2022-10-16T07:33:19.304Z,2.92
2022-10-16T07:35:50.561Z,3.22
2022-10-16T07:38:17.148Z,2.50
2022-10-16T07:40:43.675Z,3.88
2022-10-16T07:43:10.340Z,3.08
2022-10-16T07:45:36.794Z,2.55
2022-10-16T07:48:03.577Z,2.53
2022-10-16T07:50:30.035Z,5.85
2022-10-16T07:52:56.507Z,4.97
2022-10-16T07:55:23.066Z,3.58
2022-10-16T07:57:49.538Z,3.88
2022-10-16T08:00:18.541Z,4.55
2022-10-16T08:02:45.014Z,3.97
2022-10-16T08:05:11.477Z,7.50
2022-10-16T08:07:37.930Z,4.30
2022-10-16T08:10:04.880Z,4.57
2022-10-16T08:12:31.328Z,4.72
2022-10-16T08:14:57.775Z,3.50
2022-10-16T08:17:24.620Z,3.03
2022-10-16T08:19:51.285Z,3.00
2022-10-16T08:22:17.806Z,4.82
2022-10-16T08:24:44.266Z,3.60
2022-10-16T08:27:11.174Z,4.45
2022-10-16T08:29:37.615Z,5.15
2022-10-16T08:32:04.964Z,6.47
2022-10-16T08:36:57.761Z,3.15
2022-10-16T08:39:24.204Z,7.85
2022-10-16T08:42:11.957Z,4.28
2022-10-16T08:44:55.786Z,4.93
2022-10-16T08:47:34.952Z,6.78
2022-10-16T08:50:13.057Z,5.32
2022-10-16T08:52:42.867Z,5.53
2022-10-16T08:55:34.145Z,11.68
2022-10-16T08:58:01.722Z,6.60
2022-10-16T09:00:29.480Z,6.00
2022-10-16T09:03:40.853Z,5.47
2022-10-16T09:06:31.860Z,8.55
2022-10-16T09:09:26.174Z,6.40
2022-10-16T09:12:08.808Z,6.50
2022-10-16T09:14:52.415Z,8.73
2022-10-16T09:17:37.110Z,7.60
2022-10-16T09:20:29.001Z,6.78
2022-10-16T09:23:13.694Z,6.53
2022-10-16T09:25:42.180Z,6.15
2022-10-16T09:28:10.176Z,8.05
2022-10-16T09:30:38.077Z,7.80
2022-10-16T09:33:05.420Z,6.13
2022-10-16T09:35:38.383Z,5.72
2022-10-16T09:38:05.172Z,11.20
2022-10-16T09:40:37.721Z,6.18
2022-10-16T09:43:33.612Z,6.15
2022-10-16T09:46:23.547Z,5.05
2022-10-16T09:48:51.807Z,6.40
2022-10-16T09:51:25.890Z,4.85
2022-10-16T09:54:18.968Z,5.72
2022-10-16T09:56:47.755Z,4.25
2022-10-16T09:59:22.071Z,5.40
2022-10-16T10:01:51.938Z,4.18
2022-10-16T10:04:23.754Z,3.47
2022-10-16T10:06:53.954Z,4.88
2022-10-16T10:09:23.776Z,6.30
2022-10-16T10:12:00.776Z,6.50
2022-10-16T10:14:44.310Z,3.67
2022-10-16T10:17:14.382Z,5.03
2022-10-16T10:19:49.660Z,5.25
2022-10-16T10:22:25.274Z,4.93
2022-10-16T10:25:04.124Z,4.18
2022-10-16T10:28:00.035Z,5.85
2022-10-16T10:30:26.527Z,3.50
2022-10-16T10:33:37.717Z,4.93
2022-10-16T10:36:15.396Z,3.60
2022-10-16T10:39:00.064Z,3.45
2022-10-16T10:41:51.104Z,5.90
2022-10-16T10:44:41.924Z,4.80
2022-10-16T10:47:38.908Z,3.33
2022-10-16T10:50:36.807Z,5.95
2022-10-16T10:53:09.121Z,4.75
2022-10-16T10:55:44.321Z,3.90
2022-10-16T10:58:31.138Z,4.65
2022-10-16T11:01:12.722Z,4.80
2022-10-16T11:04:07.127Z,4.10
2022-10-16T11:06:41.073Z,3.15
2022-10-16T11:09:22.641Z,3.38
2022-10-16T11:11:55.737Z,4.65
2022-10-16T11:14:32.566Z,3.97
2022-10-16T11:17:17.966Z,3.67
2022-10-16T11:19:53.205Z,4.80
2022-10-16T11:22:48.461Z,4.95
2022-10-16T11:25:28.296Z,3.30
2022-10-16T11:28:15.925Z,4.43
2022-10-16T11:30:58.163Z,5.15
2022-10-16T11:33:41.232Z,2.63
2022-10-16T11:36:10.651Z,5.70
2022-10-16T11:39:12.836Z,6.03
2022-10-16T11:42:00.070Z,3.08
2022-10-16T11:44:52.785Z,3.88
2022-10-16T11:47:57.415Z,4.82
2022-10-16T11:50:57.790Z,3.03
2022-10-16T11:53:58.097Z,3.10
2022-10-16T11:56:26.482Z,2.92
2022-10-16T11:58:55.929Z,2.53
2022-10-16T12:01:34.905Z,3.97
2022-10-16T12:04:16.512Z,2.83
2022-10-16T12:07:07.001Z,2.63
2022-10-16T12:09:37.442Z,3.45
2022-10-16T12:12:04.316Z,3.22
2022-10-16T12:14:30.702Z,3.75
2022-10-16T12:16:57.229Z,3.53
2022-10-16T12:19:25.719Z,2.90
2022-10-16T12:21:55.492Z,2.25
2022-10-16T12:24:33.412Z,3.20
2022-10-16T12:27:00.625Z,2.75
2022-10-16T12:29:38.657Z,3.20
2022-10-16T12:32:41.806Z,4.47
2022-10-16T12:35:20.940Z,3.30
2022-10-16T12:37:47.506Z,3.08
2022-10-16T12:40:15.969Z,2.75
2022-10-16T12:42:42.456Z,3.72
2022-10-16T12:45:34.886Z,3.88
2022-10-16T12:48:04.134Z,3.45
2022-10-16T12:50:35.673Z,4.57
2022-10-16T12:53:04.683Z,4.13
2022-10-16T12:55:44.638Z,3.13
2022-10-16T12:58:24.117Z,3.28
2022-10-16T13:00:56.662Z,3.55
2022-10-16T13:03:50.284Z,2.65
2022-10-16T13:06:45.645Z,2.45
2022-10-16T13:09:42.465Z,3.83
2022-10-16T13:12:15.053Z,2.95
2022-10-16T13:14:41.521Z,3.80
2022-10-16T13:17:23.950Z,2.88
2022-10-16T13:20:05.741Z,3.33
2022-10-16T13:22:55.140Z,2.97
2022-10-16T13:25:45.974Z,3.28
2022-10-16T13:28:13.940Z,3.30
2022-10-16T13:30:42.735Z,2.85
2022-10-16T13:33:15.561Z,2.75
2022-10-16T13:35:55.328Z,2.33
2022-10-16T13:38:29.604Z,2.30
2022-10-16T13:40:59.036Z,2.35
2022-10-16T13:43:32.597Z,2.95
2022-10-16T13:46:18.106Z,2.88
2022-10-16T13:51:17.738Z,3.17
2022-10-16T13:53:45.650Z,3.38
2022-10-16T13:56:15.199Z,2.10
2022-10-16T13:58:42.195Z,2.20
2022-10-16T14:01:21.303Z,2.67
2022-10-16T14:03:49.292Z,1.95
2022-10-16T14:06:18.826Z,3.03
2022-10-16T14:08:49.885Z,2.65
2022-10-16T14:11:24.660Z,2.13
2022-10-16T14:13:52.317Z,2.33
2022-10-16T14:16:22.581Z,2.42
2022-10-16T14:18:59.870Z,2.88
2022-10-16T14:21:27.623Z,2.63
2022-10-16T14:23:55.202Z,2.65
2022-10-16T14:26:24.305Z,2.60
2022-10-16T14:29:13.335Z,3.55
2022-10-16T14:31:40.801Z,1.85
2022-10-16T14:34:25.751Z,2.08
2022-10-16T14:36:52.237Z,3.80
2022-10-16T14:39:21.586Z,1.52
2022-10-16T14:41:50.432Z,4.18
2022-10-16T14:44:20.612Z,2.65
2022-10-16T14:46:47.301Z,2.88
2022-10-16T14:49:13.689Z,3.80
2022-10-16T14:51:42.931Z,4.72
2022-10-16T14:54:10.221Z,2.97
2022-10-16T14:59:40.510Z,2.03
2022-10-16T15:02:23.757Z,2.33
2022-10-16T15:04:50.473Z,4.07
2022-10-16T15:07:17.064Z,2.88
2022-10-16T15:09:48.144Z,1.77
2022-10-16T15:12:16.797Z,3.13
2022-10-16T15:14:43.535Z,2.25
2022-10-16T15:17:13.459Z,2.38
2022-10-16T15:19:41.080Z,2.67
2022-10-16T15:22:07.570Z,2.35
2022-10-16T15:24:34.141Z,3.17
2022-10-16T15:27:00.640Z,2.50
2022-10-16T15:29:27.086Z,1.23
2022-10-16T15:31:53.578Z,2.40
2022-10-16T15:34:20.637Z,2.63
2022-10-16T15:36:47.281Z,3.35
2022-10-16T15:39:17.313Z,2.03
2022-10-16T15:41:45.445Z,2.33
2022-10-16T15:44:12.067Z,1.73
2022-10-16T15:46:38.550Z,2.47
2022-10-16T15:49:05.338Z,2.67
2022-10-16T15:51:34.022Z,2.03
2022-10-16T15:54:02.759Z,2.10
2022-10-16T15:56:29.858Z,3.03
2022-10-16T15:58:56.625Z,2.17
2022-10-16T16:01:23.203Z,1.60
2022-10-16T16:03:53.854Z,1.85
2022-10-16T16:06:20.439Z,2.70
2022-10-16T16:08:46.913Z,2.35
2022-10-16T16:11:15.589Z,1.58
2022-10-16T16:13:42.513Z,2.42
2022-10-16T16:16:11.261Z,2.90
2022-10-16T16:18:38.262Z,1.80
2022-10-16T16:21:05.693Z,1.88
2022-10-16T16:23:32.771Z,1.67
2022-10-16T16:26:15.865Z,1.60
2022-10-16T16:28:44.232Z,2.63
2022-10-16T16:31:11.290Z,1.95
2022-10-16T16:33:37.740Z,1.92
2022-10-16T16:36:10.439Z,1.60
2022-10-16T16:38:39.574Z,2.75
2022-10-16T16:41:17.923Z,2.58
2022-10-16T16:43:45.084Z,1.83
2022-10-16T16:46:11.965Z,1.23
2022-10-16T16:48:39.400Z,1.75
2022-10-16T16:51:16.119Z,2.20
2022-10-16T16:53:44.076Z,2.08
2022-10-16T16:56:10.894Z,1.85
2022-10-16T16:58:37.537Z,2.42
2022-10-16T17:01:21.412Z,1.48
2022-10-16T17:03:50.911Z,2.40
2022-10-16T17:06:20.600Z,1.50
2022-10-16T17:08:48.291Z,2.72
2022-10-16T17:11:17.468Z,2.60
2022-10-16T17:13:44.333Z,2.08
2022-10-16T17:16:11.110Z,1.45
2022-10-16T17:18:38.168Z,2.72
2022-10-16T17:21:07.241Z,1.85
2022-10-16T17:23:35.124Z,1.63
2022-10-16T17:26:11.037Z,2.13
2022-10-16T17:28:39.149Z,1.73
2022-10-16T17:31:24.243Z,2.65
2022-10-16T17:33:51.709Z,2.17
2022-10-16T17:36:19.429Z,2.67
2022-10-16T17:38:46.646Z,2.00
2022-10-16T17:41:15.589Z,1.40
2022-10-16T17:43:42.861Z,1.48
2022-10-16T17:48:40.906Z,1.80
2022-10-16T17:51:09.066Z,1.63
2022-10-16T17:53:36.514Z,1.85
2022-10-16T17:56:13.899Z,1.45
2022-10-16T17:58:41.221Z,1.83
2022-10-16T18:03:56.239Z,2.20
2022-10-16T18:06:23.646Z,1.48
2022-10-16T18:08:51.320Z,1.85
2022-10-16T18:11:17.976Z,2.22
2022-10-16T18:13:44.460Z,1.80
2022-10-16T18:16:13.204Z,1.98
2022-10-16T18:18:41.219Z,2.70
2022-10-16T18:21:11.103Z,2.00
2022-10-16T18:23:38.891Z,2.03
2022-10-16T18:26:06.767Z,1.90
2022-10-16T18:28:33.803Z,2.00
2022-10-16T18:31:04.621Z,2.70
2022-10-16T18:33:31.944Z,1.92
2022-10-16T18:38:29.415Z,2.75
2022-10-16T18:40:56.048Z,1.73
2022-10-16T18:43:22.551Z,1.55
2022-10-16T18:45:59.977Z,2.30
2022-10-16T18:48:27.721Z,2.30
2022-10-16T18:50:54.645Z,2.13
2022-10-16T18:53:21.276Z,1.85
2022-10-16T18:55:53.820Z,2.28
2022-10-16T18:58:20.329Z,1.88
2022-10-16T19:00:46.962Z,2.20
2022-10-16T19:03:13.430Z,1.55
2022-10-16T19:05:39.921Z,2.15
2022-10-16T19:08:06.394Z,2.28
2022-10-16T19:10:36.760Z,2.20
2022-10-16T19:13:05.330Z,2.13
2022-10-16T19:15:34.275Z,2.03
2022-10-16T19:18:00.758Z,2.33
2022-10-16T19:20:27.241Z,2.25
2022-10-16T19:22:56.674Z,3.05
2022-10-16T19:25:23.242Z,2.00
2022-10-16T19:27:50.880Z,2.22
2022-10-16T19:30:19.038Z,2.13
2022-10-16T19:32:46.376Z,2.42
2022-10-16T19:37:39.277Z,2.08
2022-10-16T19:40:06.441Z,2.55
2022-10-16T19:42:33.011Z,2.05
2022-10-16T19:44:59.445Z,2.40
2022-10-16T19:47:25.934Z,2.42
2022-10-16T19:49:53.330Z,2.00
2022-10-16T19:52:22.113Z,1.48
2022-10-16T19:54:48.868Z,2.08
2022-10-16T19:57:15.353Z,2.20
2022-10-16T19:59:44.918Z,2.08
2022-10-16T20:02:12.354Z,2.10
2022-10-16T20:04:38.890Z,2.67
2022-10-16T20:07:05.858Z,1.63
2022-10-16T20:09:34.189Z,2.28
2022-10-16T20:12:01.188Z,2.13
2022-10-16T20:14:28.344Z,1.80
2022-10-16T20:16:56.001Z,2.10
2022-10-16T20:19:22.741Z,2.00
2022-10-16T20:21:49.207Z,2.03
2022-10-16T20:24:15.711Z,2.35
2022-10-16T20:26:42.170Z,1.92
2022-10-16T20:29:08.780Z,2.13
2022-10-16T20:31:35.793Z,2.40
2022-10-16T20:34:05.702Z,2.60
2022-10-16T20:36:33.886Z,2.25
2022-10-16T20:39:01.547Z,1.77
2022-10-16T20:41:28.020Z,2.75
2022-10-16T20:43:55.788Z,1.85
2022-10-16T20:46:25.214Z,2.20
2022-10-16T20:48:52.871Z,2.58
2022-10-16T20:51:30.630Z,3.00
2022-10-16T20:54:05.375Z,2.33
2022-10-16T20:56:35.944Z,2.40
2022-10-16T20:59:05.432Z,2.65
2022-10-16T21:01:32.586Z,2.08
2022-10-16T21:04:01.878Z,2.30
2022-10-16T21:06:29.626Z,2.33
2022-10-16T21:08:56.200Z,1.73
2022-10-16T21:11:27.861Z,2.13
2022-10-16T21:13:56.702Z,2.83
2022-10-16T21:16:23.292Z,2.63
2022-10-16T21:18:50.077Z,2.13
2022-10-16T21:21:38.019Z,2.15
2022-10-16T21:24:06.689Z,2.28
2022-10-16T21:26:33.941Z,1.70
2022-10-16T21:29:03.871Z,1.90
2022-10-16T21:31:31.376Z,1.90
2022-10-16T21:33:58.034Z,2.10
2022-10-16T21:36:33.238Z,2.25
2022-10-16T21:39:06.207Z,2.65
2022-10-16T21:41:33.308Z,1.65
2022-10-16T21:44:00.619Z,2.20
2022-10-16T21:48:55.986Z,2.53
2022-10-16T21:51:29.892Z,1.95
2022-10-16T21:53:56.614Z,1.65
2022-10-16T21:56:23.502Z,2.05
2022-10-16T21:58:50.353Z,2.00
2022-10-16T22:01:18.947Z,1.75
2022-10-16T22:03:47.158Z,1.70
2022-10-16T22:06:15.687Z,3.92
2022-10-16T22:08:42.737Z,1.98
2022-10-16T22:11:13.802Z,2.42
2022-10-16T22:13:40.835Z,2.13
2022-10-16T22:16:07.715Z,1.60
2022-10-16T22:18:35.116Z,2.20
2022-10-16T22:21:02.234Z,2.03
2022-10-16T22:23:28.721Z,1.88
2022-10-16T22:26:08.555Z,2.35
2022-10-16T22:28:35.995Z,1.35
2022-10-16T22:31:04.779Z,1.52
2022-10-16T22:33:31.652Z,2.08
2022-10-16T22:36:01.034Z,1.52
2022-10-16T22:38:32.038Z,1.67
2022-10-16T22:41:06.604Z,1.58
2022-10-16T22:43:41.355Z,2.45
2022-10-16T22:46:10.161Z,1.85
2022-10-16T22:48:37.287Z,1.67
2022-10-16T22:51:05.371Z,1.60
2022-10-16T22:53:32.811Z,1.73
2022-10-16T22:55:59.392Z,2.17
2022-10-16T22:58:26.073Z,2.50
2022-10-16T23:00:52.674Z,2.17
2022-10-16T23:03:19.479Z,1.02
2022-10-16T23:05:46.015Z,1.60
2022-10-16T23:08:13.308Z,2.25
2022-10-16T23:13:07.160Z,2.38
2022-10-16T23:15:33.658Z,1.73
2022-10-16T23:18:00.268Z,1.77
2022-10-16T23:20:26.801Z,1.90
2022-10-16T23:22:53.321Z,1.67
2022-10-16T23:25:19.771Z,2.10
2022-10-16T23:27:46.623Z,1.92
2022-10-16T23:30:13.266Z,4.22
2022-10-16T23:32:41.204Z,1.80
2022-10-16T23:35:08.141Z,1.67
2022-10-16T23:37:34.613Z,2.55
2022-10-16T23:40:01.100Z,2.40
2022-10-16T23:42:27.829Z,2.20
2022-10-16T23:44:54.533Z,1.92
2022-10-16T23:47:21.022Z,1.45
2022-10-16T23:49:47.491Z,1.70
2022-10-16T23:52:14.080Z,1.95
2022-10-16T23:54:40.550Z,2.00
2022-10-16T23:57:06.998Z,2.25
2022-10-16T23:59:33.518Z,1.75
